sensor_id;sensor_type;location;lat;lon;timestamp;pressure;altitude;pressure_sealevel;temperature;humidity
20043;BME280;10182;52.896;6.496;2023-02-23T00:03:44;101135.94;;;6.53;100.00
20043;BME280;10182;52.896;6.496;2023-02-23T00:08:48;101122.81;;;6.52;100.00
20043;BME280;10182;52.896;6.496;2023-02-23T00:14:06;101131.53;;;6.55;100.00
20043;BME280;10182;52.896;6.496;2023-02-23T00:19:09;101128.78;;;6.60;100.00
20043;BME280;10182;52.896;6.496;2023-02-23T00:24:16;101121.00;;;6.55;100.00
20043;BME280;10182;52.896;6.496;2023-02-23T00:29:40;101134.97;;;6.57;100.00
20043;BME280;10182;52.896;6.496;2023-02-23T00:34:57;101135.81;;;6.59;100.00
20043;BME280;10182;52.896;6.496;2023-02-23T00:40:01;101136.78;;;6.55;100.00
20043;BME280;10182;52.896;6.496;2023-02-23T00:45:08;101140.41;;;6.51;100.00
20043;BME280;10182;52.896;6.496;2023-02-23T00:50:13;101137.75;;;6.51;100.00
20043;BME280;10182;52.896;6.496;2023-02-23T00:55:16;101144.72;;;6.54;100.00
20043;BME280;10182;52.896;6.496;2023-02-23T01:00:26;101151.78;;;6.52;100.00
20043;BME280;10182;52.896;6.496;2023-02-23T01:05:28;101151.81;;;6.50;100.00
20043;BME280;10182;52.896;6.496;2023-02-23T01:10:30;101158.75;;;6.54;100.00
20043;BME280;10182;52.896;6.496;2023-02-23T01:15:43;101154.38;;;6.53;100.00
20043;BME280;10182;52.896;6.496;2023-02-23T01:20:47;101159.72;;;6.50;100.00
20043;BME280;10182;52.896;6.496;2023-02-23T01:25:50;101153.56;;;6.51;100.00
20043;BME280;10182;52.896;6.496;2023-02-23T01:30:53;101153.50;;;6.53;100.00
20043;BME280;10182;52.896;6.496;2023-02-23T01:35:56;101154.50;;;6.49;100.00
20043;BME280;10182;52.896;6.496;2023-02-23T01:40:59;101149.19;;;6.50;100.00
20043;BME280;10182;52.896;6.496;2023-02-23T01:46:03;101157.97;;;6.51;100.00
20043;BME280;10182;52.896;6.496;2023-02-23T01:51:10;101154.44;;;6.50;100.00
20043;BME280;10182;52.896;6.496;2023-02-23T01:56:15;101157.13;;;6.49;100.00
20043;BME280;10182;52.896;6.496;2023-02-23T02:01:22;101163.25;;;6.49;100.00
20043;BME280;10182;52.896;6.496;2023-02-23T02:06:30;101164.09;;;6.51;100.00
20043;BME280;10182;52.896;6.496;2023-02-23T02:11:39;101162.34;;;6.50;100.00
20043;BME280;10182;52.896;6.496;2023-02-23T02:17:22;101163.25;;;6.49;100.00
20043;BME280;10182;52.896;6.496;2023-02-23T02:22:55;101165.88;;;6.51;100.00
20043;BME280;10182;52.896;6.496;2023-02-23T02:28:26;101159.75;;;6.49;100.00
20043;BME280;10182;52.896;6.496;2023-02-23T02:34:09;101163.28;;;6.48;100.00
20043;BME280;10182;52.896;6.496;2023-02-23T02:39:43;101164.22;;;6.45;100.00
20043;BME280;10182;52.896;6.496;2023-02-23T02:45:02;101160.69;;;6.46;100.00
20043;BME280;10182;52.896;6.496;2023-02-23T02:50:41;101161.56;;;6.45;100.00
20043;BME280;10182;52.896;6.496;2023-02-23T02:56:05;101160.72;;;6.44;100.00
20043;BME280;10182;52.896;6.496;2023-02-23T03:01:12;101154.66;;;6.42;100.00
20043;BME280;10182;52.896;6.496;2023-02-23T03:06:37;101156.38;;;6.42;100.00
20043;BME280;10182;52.896;6.496;2023-02-23T03:12:19;101152.91;;;6.41;100.00
20043;BME280;10182;52.896;6.496;2023-02-23T03:17:59;101150.31;;;6.40;100.00
20043;BME280;10182;52.896;6.496;2023-02-23T03:23:34;101153.72;;;6.43;100.00
20043;BME280;10182;52.896;6.496;2023-02-23T03:29:06;101155.56;;;6.40;100.00
20043;BME280;10182;52.896;6.496;2023-02-23T03:34:39;101159.91;;;6.41;100.00
20043;BME280;10182;52.896;6.496;2023-02-23T03:40:18;101166.97;;;6.40;100.00
20043;BME280;10182;52.896;6.496;2023-02-23T03:45:43;101176.66;;;6.37;100.00
20043;BME280;10182;52.896;6.496;2023-02-23T03:51:06;101178.44;;;6.36;100.00
20043;BME280;10182;52.896;6.496;2023-02-23T03:56:31;101181.09;;;6.36;100.00
20043;BME280;10182;52.896;6.496;2023-02-23T04:02:07;101189.84;;;6.37;100.00
20043;BME280;10182;52.896;6.496;2023-02-23T04:07:32;101197.75;;;6.35;100.00
20043;BME280;10182;52.896;6.496;2023-02-23T04:13:01;101195.16;;;6.34;100.00
20043;BME280;10182;52.896;6.496;2023-02-23T04:18:25;101196.09;;;6.31;100.00
20043;BME280;10182;52.896;6.496;2023-02-23T04:23:31;101198.72;;;6.31;100.00
20043;BME280;10182;52.896;6.496;2023-02-23T04:29:06;101196.09;;;6.31;100.00
20043;BME280;10182;52.896;6.496;2023-02-23T04:34:09;101192.66;;;6.29;100.00
20043;BME280;10182;52.896;6.496;2023-02-23T04:39:11;101195.28;;;6.29;100.00
20043;BME280;10182;52.896;6.496;2023-02-23T04:44:27;101193.53;;;6.28;100.00
20043;BME280;10182;52.896;6.496;2023-02-23T04:49:36;101194.44;;;6.27;100.00
20043;BME280;10182;52.896;6.496;2023-02-23T04:54:41;101203.19;;;6.29;100.00
20043;BME280;10182;52.896;6.496;2023-02-23T04:59:43;101204.03;;;6.30;100.00
20043;BME280;10182;52.896;6.496;2023-02-23T05:04:50;101202.31;;;6.27;100.00
20043;BME280;10182;52.896;6.496;2023-02-23T05:10:06;101205.00;;;6.25;100.00
20043;BME280;10182;52.896;6.496;2023-02-23T05:15:10;101212.88;;;6.25;100.00
20043;BME280;10182;52.896;6.496;2023-02-23T05:20:17;101213.78;;;6.24;100.00
20043;BME280;10182;52.896;6.496;2023-02-23T05:25:19;101213.84;;;6.21;100.00
20043;BME280;10182;52.896;6.496;2023-02-23T05:30:21;101225.31;;;6.19;100.00
20043;BME280;10182;52.896;6.496;2023-02-23T05:35:34;101226.19;;;6.19;100.00
20043;BME280;10182;52.896;6.496;2023-02-23T05:40:38;101233.22;;;6.17;100.00
20043;BME280;10182;52.896;6.496;2023-02-23T05:45:41;101230.66;;;6.14;100.00
20043;BME280;10182;52.896;6.496;2023-02-23T05:50:45;101236.03;;;6.08;100.00
20043;BME280;10182;52.896;6.496;2023-02-23T05:55:47;101232.50;;;6.09;100.00
20043;BME280;10182;52.896;6.496;2023-02-23T06:00:49;101237.78;;;6.09;100.00
20043;BME280;10182;52.896;6.496;2023-02-23T06:05:57;101240.63;;;5.98;100.00
20043;BME280;10182;52.896;6.496;2023-02-23T06:11:11;101244.91;;;6.02;100.00
20043;BME280;10182;52.896;6.496;2023-02-23T06:16:22;101241.47;;;5.97;100.00
20043;BME280;10182;52.896;6.496;2023-02-23T06:21:29;101238.03;;;5.95;100.00
20043;BME280;10182;52.896;6.496;2023-02-23T06:26:42;101252.00;;;6.00;100.00
20043;BME280;10182;52.896;6.496;2023-02-23T06:31:56;101250.19;;;6.02;100.00
20043;BME280;10182;52.896;6.496;2023-02-23T06:36:59;101260.78;;;5.99;100.00
20043;BME280;10182;52.896;6.496;2023-02-23T06:42:10;101261.59;;;6.03;100.00
20043;BME280;10182;52.896;6.496;2023-02-23T06:47:39;101267.63;;;6.06;100.00
20043;BME280;10182;52.896;6.496;2023-02-23T06:52:44;101272.91;;;6.06;100.00
20043;BME280;10182;52.896;6.496;2023-02-23T06:57:59;101277.31;;;6.06;100.00
20043;BME280;10182;52.896;6.496;2023-02-23T07:03:06;101286.03;;;6.06;100.00
20043;BME280;10182;52.896;6.496;2023-02-23T07:08:12;101293.09;;;6.06;100.00
20043;BME280;10182;52.896;6.496;2023-02-23T07:13:14;101306.28;;;6.01;100.00
20043;BME280;10182;52.896;6.496;2023-02-23T07:18:16;101308.16;;;5.93;100.00
20043;BME280;10182;52.896;6.496;2023-02-23T07:23:19;101315.09;;;5.97;100.00
20043;BME280;10182;52.896;6.496;2023-02-23T07:28:24;101314.25;;;5.97;100.00
20043;BME280;10182;52.896;6.496;2023-02-23T07:33:27;101315.19;;;5.94;100.00
20043;BME280;10182;52.896;6.496;2023-02-23T07:38:30;101323.94;;;5.95;100.00
20043;BME280;10182;52.896;6.496;2023-02-23T07:43:35;101333.63;;;5.92;100.00
20043;BME280;10182;52.896;6.496;2023-02-23T07:48:47;101341.47;;;5.94;100.00
20043;BME280;10182;52.896;6.496;2023-02-23T07:53:51;101339.78;;;5.90;100.00
20043;BME280;10182;52.896;6.496;2023-02-23T07:59:01;101344.09;;;5.94;100.00
20043;BME280;10182;52.896;6.496;2023-02-23T08:04:03;101349.31;;;5.96;100.00
20043;BME280;10182;52.896;6.496;2023-02-23T08:09:13;101367.66;;;6.03;100.00
20043;BME280;10182;52.896;6.496;2023-02-23T08:14:20;101368.47;;;6.07;100.00
20043;BME280;10182;52.896;6.496;2023-02-23T08:19:23;101363.16;;;6.10;100.00
20043;BME280;10182;52.896;6.496;2023-02-23T08:24:31;101376.28;;;6.10;100.00
20043;BME280;10182;52.896;6.496;2023-02-23T08:29:41;101371.09;;;6.05;100.00
20043;BME280;10182;52.896;6.496;2023-02-23T08:34:46;101370.22;;;6.06;100.00
20043;BME280;10182;52.896;6.496;2023-02-23T08:39:52;101369.38;;;6.04;100.00
20043;BME280;10182;52.896;6.496;2023-02-23T08:44:56;101378.13;;;6.05;100.00
20043;BME280;10182;52.896;6.496;2023-02-23T08:50:06;101377.22;;;6.07;100.00
20043;BME280;10182;52.896;6.496;2023-02-23T08:55:17;101382.56;;;6.01;100.00
20043;BME280;10182;52.896;6.496;2023-02-23T09:00:28;101386.13;;;6.00;100.00
20043;BME280;10182;52.896;6.496;2023-02-23T09:05:45;101389.59;;;6.01;100.00
20043;BME280;10182;52.896;6.496;2023-02-23T09:10:49;101388.69;;;6.03;100.00
20043;BME280;10182;52.896;6.496;2023-02-23T09:15:51;101388.53;;;6.13;100.00
20043;BME280;10182;52.896;6.496;2023-02-23T09:20:55;101383.09;;;6.20;100.00
20043;BME280;10182;52.896;6.496;2023-02-23T09:26:03;101386.63;;;6.21;100.00
20043;BME280;10182;52.896;6.496;2023-02-23T09:31:06;101399.66;;;6.27;100.00
20043;BME280;10182;52.896;6.496;2023-02-23T09:36:09;101400.31;;;6.40;100.00
20043;BME280;10182;52.896;6.496;2023-02-23T09:41:41;101393.97;;;6.50;100.00
20043;BME280;10182;52.896;6.496;2023-02-23T09:46:52;101397.47;;;6.49;100.00
20043;BME280;10182;52.896;6.496;2023-02-23T09:52:00;101401.72;;;6.58;100.00
20043;BME280;10182;52.896;6.496;2023-02-23T09:57:11;101409.66;;;6.56;100.00
20043;BME280;10182;52.896;6.496;2023-02-23T10:02:22;101409.50;;;6.63;100.00
20043;BME280;10182;52.896;6.496;2023-02-23T10:07:30;101418.44;;;6.55;100.00
20043;BME280;10182;52.896;6.496;2023-02-23T10:12:42;101410.44;;;6.60;100.00
20043;BME280;10182;52.896;6.496;2023-02-23T10:17:58;101412.78;;;6.75;100.00
20043;BME280;10182;52.896;6.496;2023-02-23T10:23:07;101419.75;;;6.76;100.00
20043;BME280;10182;52.896;6.496;2023-02-23T10:28:14;101424.28;;;6.71;100.00
20043;BME280;10182;52.896;6.496;2023-02-23T10:33:21;101433.00;;;6.73;100.00
20043;BME280;10182;52.896;6.496;2023-02-23T10:38:24;101437.38;;;6.74;100.00
20043;BME280;10182;52.896;6.496;2023-02-23T10:43:27;101441.84;;;6.69;100.00
20043;BME280;10182;52.896;6.496;2023-02-23T10:48:33;101440.00;;;6.74;100.00
20043;BME280;10182;52.896;6.496;2023-02-23T10:53:38;101436.34;;;6.82;100.00
20043;BME280;10182;52.896;6.496;2023-02-23T10:58:43;101442.44;;;6.85;100.00
20043;BME280;10182;52.896;6.496;2023-02-23T11:03:47;101440.47;;;6.95;100.00
20043;BME280;10182;52.896;6.496;2023-02-23T11:08:50;101443.44;;;6.80;100.00
20043;BME280;10182;52.896;6.496;2023-02-23T11:13:55;101448.44;;;6.92;100.00
20043;BME280;10182;52.896;6.496;2023-02-23T11:18:59;101438.91;;;6.85;100.00
20043;BME280;10182;52.896;6.496;2023-02-23T11:24:21;101445.03;;;6.87;100.00
20043;BME280;10182;52.896;6.496;2023-02-23T11:29:30;101447.69;;;6.85;100.00
20043;BME280;10182;52.896;6.496;2023-02-23T11:34:36;101441.44;;;6.91;100.00
20043;BME280;10182;52.896;6.496;2023-02-23T11:39:50;101447.38;;;7.01;100.00
20043;BME280;10182;52.896;6.496;2023-02-23T11:45:04;101446.50;;;7.02;100.00
20043;BME280;10182;52.896;6.496;2023-02-23T11:50:19;101442.47;;;7.26;100.00
20043;BME280;10182;52.896;6.496;2023-02-23T11:55:23;101446.03;;;7.23;100.00
20043;BME280;10182;52.896;6.496;2023-02-23T12:00:28;101451.34;;;7.22;100.00
20043;BME280;10182;52.896;6.496;2023-02-23T12:05:34;101449.69;;;7.16;100.00
20043;BME280;10182;52.896;6.496;2023-02-23T12:10:38;101443.72;;;7.09;100.00
20043;BME280;10182;52.896;6.496;2023-02-23T12:15:47;101450.78;;;7.06;100.00
20043;BME280;10182;52.896;6.496;2023-02-23T12:20:55;101446.03;;;7.23;100.00
20043;BME280;10182;52.896;6.496;2023-02-23T12:26:02;101442.56;;;7.21;100.00
20043;BME280;10182;52.896;6.496;2023-02-23T12:31:21;101445.34;;;7.15;100.00
20043;BME280;10182;52.896;6.496;2023-02-23T12:36:26;101445.78;;;7.36;100.00
20043;BME280;10182;52.896;6.496;2023-02-23T12:41:35;101435.00;;;7.47;100.00
20043;BME280;10182;52.896;6.496;2023-02-23T12:46:45;101431.88;;;7.67;100.00
20043;BME280;10182;52.896;6.496;2023-02-23T12:51:50;101428.09;;;7.78;100.00
20043;BME280;10182;52.896;6.496;2023-02-23T12:57:03;101434.38;;;7.73;100.00
20043;BME280;10182;52.896;6.496;2023-02-23T13:02:13;101438.25;;;7.58;100.00
20043;BME280;10182;52.896;6.496;2023-02-23T13:07:20;101426.75;;;7.60;100.00
20043;BME280;10182;52.896;6.496;2023-02-23T13:12:31;101432.13;;;7.57;100.00
20043;BME280;10182;52.896;6.496;2023-02-23T13:17:43;101429.53;;;7.54;100.00
20043;BME280;10182;52.896;6.496;2023-02-23T13:22:52;101441.31;;;7.38;100.00
20043;BME280;10182;52.896;6.496;2023-02-23T13:27:58;101450.66;;;7.53;100.00
20043;BME280;10182;52.896;6.496;2023-02-23T13:33:10;101452.75;;;7.38;100.00
20043;BME280;10182;52.896;6.496;2023-02-23T13:38:16;101455.22;;;7.44;100.00
20043;BME280;10182;52.896;6.496;2023-02-23T13:43:23;101459.81;;;7.36;100.00
20043;BME280;10182;52.896;6.496;2023-02-23T13:48:41;101454.44;;;7.41;100.00
20043;BME280;10182;52.896;6.496;2023-02-23T13:53:58;101458.72;;;7.47;100.00
20043;BME280;10182;52.896;6.496;2023-02-23T13:59:02;101463.13;;;7.44;100.00
20043;BME280;10182;52.896;6.496;2023-02-23T14:04:13;101461.66;;;7.33;100.00
20043;BME280;10182;52.896;6.496;2023-02-23T14:09:19;101473.25;;;7.24;100.00
20043;BME280;10182;52.896;6.496;2023-02-23T14:14:43;101487.59;;;7.09;100.00
20043;BME280;10182;52.896;6.496;2023-02-23T14:20:03;101479.50;;;6.74;100.00
20043;BME280;10182;52.896;6.496;2023-02-23T14:25:45;101484.16;;;6.60;100.00
20043;BME280;10182;52.896;6.496;2023-02-23T14:30:49;101483.53;;;6.46;100.00
20043;BME280;10182;52.896;6.496;2023-02-23T14:36:01;101496.91;;;6.33;100.00
20043;BME280;10182;52.896;6.496;2023-02-23T14:41:19;101495.41;;;6.18;100.00
20043;BME280;10182;52.896;6.496;2023-02-23T14:46:23;101501.69;;;6.08;100.00
20043;BME280;10182;52.896;6.496;2023-02-23T14:51:35;101502.69;;;6.01;100.00
20043;BME280;10182;52.896;6.496;2023-02-23T14:56:45;101515.97;;;5.90;100.00
20043;BME280;10182;52.896;6.496;2023-02-23T15:01:48;101514.38;;;5.80;100.00
20043;BME280;10182;52.896;6.496;2023-02-23T15:06:54;101516.09;;;5.81;100.00
20043;BME280;10182;52.896;6.496;2023-02-23T15:11:59;101506.28;;;5.93;100.00
20043;BME280;10182;52.896;6.496;2023-02-23T15:17:03;101517.78;;;5.88;100.00
20043;BME280;10182;52.896;6.496;2023-02-23T15:22:07;101517.91;;;5.79;100.00
20043;BME280;10182;52.896;6.496;2023-02-23T15:27:23;101524.00;;;5.79;100.00
20043;BME280;10182;52.896;6.496;2023-02-23T15:32:36;101528.47;;;5.74;100.00
20043;BME280;10182;52.896;6.496;2023-02-23T15:37:41;101519.13;;;5.53;100.00
20043;BME280;10182;52.896;6.496;2023-02-23T15:42:47;101523.59;;;5.46;100.00
20043;BME280;10182;52.896;6.496;2023-02-23T15:47:51;101527.88;;;5.53;100.00
20043;BME280;10182;52.896;6.496;2023-02-23T15:52:59;101527.28;;;5.31;100.00
20043;BME280;10182;52.896;6.496;2023-02-23T15:58:11;101538.56;;;5.39;100.00
20043;BME280;10182;52.896;6.496;2023-02-23T16:03:22;101530.63;;;5.42;100.00
20043;BME280;10182;52.896;6.496;2023-02-23T16:08:26;101536.69;;;5.48;100.00
20043;BME280;10182;52.896;6.496;2023-02-23T16:13:29;101525.50;;;5.33;100.00
20043;BME280;10182;52.896;6.496;2023-02-23T16:18:34;101536.00;;;5.35;100.00
20043;BME280;10182;52.896;6.496;2023-02-23T16:23:43;101534.34;;;5.26;100.00
20043;BME280;10182;52.896;6.496;2023-02-23T16:28:52;101534.44;;;5.18;100.00
20043;BME280;10182;52.896;6.496;2023-02-23T16:33:56;101538.75;;;5.24;100.00
20043;BME280;10182;52.896;6.496;2023-02-23T16:39:02;101533.47;;;5.25;100.00
20043;BME280;10182;52.896;6.496;2023-02-23T16:44:06;101538.00;;;5.11;100.00
20043;BME280;10182;52.896;6.496;2023-02-23T16:49:13;101544.19;;;5.07;100.00
20043;BME280;10182;52.896;6.496;2023-02-23T16:54:16;101542.31;;;5.18;100.00
20043;BME280;10182;52.896;6.496;2023-02-23T16:59:18;101545.84;;;5.16;100.00
20043;BME280;10182;52.896;6.496;2023-02-23T17:04:20;101545.84;;;5.16;100.00
20043;BME280;10182;52.896;6.496;2023-02-23T17:09:24;101547.69;;;5.09;100.00
20043;BME280;10182;52.896;6.496;2023-02-23T17:14:27;101549.44;;;5.07;100.00
20043;BME280;10182;52.896;6.496;2023-02-23T17:19:31;101545.09;;;5.03;100.00
20043;BME280;10182;52.896;6.496;2023-02-23T17:24:34;101549.56;;;4.98;100.00
20043;BME280;10182;52.896;6.496;2023-02-23T17:29:37;101543.44;;;4.96;100.00
20043;BME280;10182;52.896;6.496;2023-02-23T17:34:44;101549.56;;;4.95;100.00
20043;BME280;10182;52.896;6.496;2023-02-23T17:39:52;101555.72;;;4.95;100.00
20043;BME280;10182;52.896;6.496;2023-02-23T17:44:54;101555.75;;;4.89;100.00
20043;BME280;10182;52.896;6.496;2023-02-23T17:49:56;101556.66;;;4.85;100.00
20043;BME280;10182;52.896;6.496;2023-02-23T17:54:59;101558.47;;;4.80;100.00
20043;BME280;10182;52.896;6.496;2023-02-23T18:00:02;101570.72;;;4.81;100.00
20043;BME280;10182;52.896;6.496;2023-02-23T18:05:07;101569.16;;;4.61;100.00
20043;BME280;10182;52.896;6.496;2023-02-23T18:10:11;101563.88;;;4.64;100.00
20043;BME280;10182;52.896;6.496;2023-02-23T18:15:13;101575.31;;;4.57;100.00
20043;BME280;10182;52.896;6.496;2023-02-23T18:20:17;101567.47;;;4.51;100.00
20043;BME280;10182;52.896;6.496;2023-02-23T18:25:24;101568.47;;;4.36;100.00
20043;BME280;10182;52.896;6.496;2023-02-23T18:30:27;101566.91;;;4.13;100.00
20043;BME280;10182;52.896;6.496;2023-02-23T18:35:32;101578.31;;;4.01;100.00
20043;BME280;10182;52.896;6.496;2023-02-23T18:40:37;101580.13;;;3.93;100.00
20043;BME280;10182;52.896;6.496;2023-02-23T18:45:39;101571.47;;;3.76;100.00
20043;BME280;10182;52.896;6.496;2023-02-23T18:50:42;101580.28;;;3.59;100.00
20043;BME280;10182;52.896;6.496;2023-02-23T18:55:46;101575.94;;;3.53;100.00
20043;BME280;10182;52.896;6.496;2023-02-23T19:00:48;101583.00;;;3.36;100.00
20043;BME280;10182;52.896;6.496;2023-02-23T19:05:50;101573.44;;;3.27;100.00
20043;BME280;10182;52.896;6.496;2023-02-23T19:10:56;101564.69;;;3.28;100.00
20043;BME280;10182;52.896;6.496;2023-02-23T19:16:02;101563.81;;;3.29;100.00
20043;BME280;10182;52.896;6.496;2023-02-23T19:21:04;101567.28;;;3.36;100.00
20043;BME280;10182;52.896;6.496;2023-02-23T19:26:09;101564.66;;;3.39;100.00
20043;BME280;10182;52.896;6.496;2023-02-23T19:31:13;101569.88;;;3.44;100.00
20043;BME280;10182;52.896;6.496;2023-02-23T19:36:22;101561.16;;;3.38;100.00
20043;BME280;10182;52.896;6.496;2023-02-23T19:41:35;101563.81;;;3.29;100.00
20043;BME280;10182;52.896;6.496;2023-02-23T19:46:37;101562.97;;;3.26;100.00
20043;BME280;10182;52.896;6.496;2023-02-23T19:51:42;101568.22;;;3.24;100.00
20043;BME280;10182;52.896;6.496;2023-02-23T19:56:46;101569.06;;;3.25;100.00
20043;BME280;10182;52.896;6.496;2023-02-23T20:01:49;101572.53;;;3.27;100.00
20043;BME280;10182;52.896;6.496;2023-02-23T20:06:52;101559.50;;;3.19;100.00
20043;BME280;10182;52.896;6.496;2023-02-23T20:11:56;101557.72;;;3.21;100.00
20043;BME280;10182;52.896;6.496;2023-02-23T20:16:57;101555.13;;;3.19;100.00
20043;BME280;10182;52.896;6.496;2023-02-23T20:21:59;101559.50;;;3.19;100.00
20043;BME280;10182;52.896;6.496;2023-02-23T20:27:03;101554.22;;;3.22;100.00
20043;BME280;10182;52.896;6.496;2023-02-23T20:32:06;101562.09;;;3.22;100.00
20043;BME280;10182;52.896;6.496;2023-02-23T20:37:08;101555.09;;;3.21;100.00
20043;BME280;10182;52.896;6.496;2023-02-23T20:42:11;101553.38;;;3.20;100.00
20043;BME280;10182;52.896;6.496;2023-02-23T20:47:13;101557.75;;;3.16;100.00
20043;BME280;10182;52.896;6.496;2023-02-23T20:52:15;101555.13;;;3.15;100.00
20043;BME280;10182;52.896;6.496;2023-02-23T20:57:20;101553.38;;;3.14;100.00
20043;BME280;10182;52.896;6.496;2023-02-23T21:02:22;101556.03;;;3.11;100.00
20043;BME280;10182;52.896;6.496;2023-02-23T21:07:24;101559.53;;;3.07;100.00
20043;BME280;10182;52.896;6.496;2023-02-23T21:12:28;101555.19;;;2.99;100.00
20043;BME280;10182;52.896;6.496;2023-02-23T21:17:30;101550.84;;;2.89;100.00
20043;BME280;10182;52.896;6.496;2023-02-23T21:22:32;101552.59;;;2.73;100.00
20043;BME280;10182;52.896;6.496;2023-02-23T21:27:39;101549.13;;;2.63;100.00
20043;BME280;10182;52.896;6.496;2023-02-23T21:32:51;101544.78;;;2.54;100.00
20043;BME280;10182;52.896;6.496;2023-02-23T21:37:55;101538.66;;;2.40;100.00
20043;BME280;10182;52.896;6.496;2023-02-23T21:43:01;101540.41;;;2.30;100.00
20043;BME280;10182;52.896;6.496;2023-02-23T21:48:10;101543.03;;;2.33;100.00
20043;BME280;10182;52.896;6.496;2023-02-23T21:53:14;101538.66;;;2.26;100.00
20043;BME280;10182;52.896;6.496;2023-02-23T21:58:25;101531.72;;;2.31;100.00
20043;BME280;10182;52.896;6.496;2023-02-23T22:03:27;101519.50;;;2.36;100.00
20043;BME280;10182;52.896;6.496;2023-02-23T22:08:30;101516.91;;;2.38;100.00
20043;BME280;10182;52.896;6.496;2023-02-23T22:13:34;101522.09;;;2.44;100.00
20043;BME280;10182;52.896;6.496;2023-02-23T22:18:36;101518.63;;;2.45;100.00
20043;BME280;10182;52.896;6.496;2023-02-23T22:23:40;101489.88;;;2.41;100.00
20043;BME280;10182;52.896;6.496;2023-02-23T22:28:44;101488.97;;;2.48;100.00
20043;BME280;10182;52.896;6.496;2023-02-23T22:33:46;101480.25;;;2.50;100.00
20043;BME280;10182;52.896;6.496;2023-02-23T22:38:48;101477.63;;;2.55;100.00
20043;BME280;10182;52.896;6.496;2023-02-23T22:43:51;101482.84;;;2.55;100.00
20043;BME280;10182;52.896;6.496;2023-02-23T22:48:54;101468.91;;;2.59;100.00
20043;BME280;10182;52.896;6.496;2023-02-23T22:53:55;101469.75;;;2.70;100.00
20043;BME280;10182;52.896;6.496;2023-02-23T22:58:59;101457.53;;;2.73;100.00
20043;BME280;10182;52.896;6.496;2023-02-23T23:04:05;101446.22;;;2.72;100.00
20043;BME280;10182;52.896;6.496;2023-02-23T23:09:11;101450.56;;;2.76;100.00
20043;BME280;10182;52.896;6.496;2023-02-23T23:14:17;101429.63;;;2.78;100.00
20043;BME280;10182;52.896;6.496;2023-02-23T23:19:21;101418.28;;;2.82;100.00
20043;BME280;10182;52.896;6.496;2023-02-23T23:24:24;101416.47;;;2.87;100.00
20043;BME280;10182;52.896;6.496;2023-02-23T23:29:28;101404.25;;;2.92;100.00
20043;BME280;10182;52.896;6.496;2023-02-23T23:34:30;101397.28;;;2.94;100.00
20043;BME280;10182;52.896;6.496;2023-02-23T23:39:32;101389.41;;;2.99;100.00
20043;BME280;10182;52.896;6.496;2023-02-23T23:44:38;101379.78;;;2.98;100.00
20043;BME280;10182;52.896;6.496;2023-02-23T23:49:40;101378.06;;;3.00;100.00
20043;BME280;10182;52.896;6.496;2023-02-23T23:54:42;101377.22;;;2.87;100.00
20043;BME280;10182;52.896;6.496;2023-02-23T23:59:46;101368.53;;;2.83;100.00
